sensor_id;sensor_type;location;lat;lon;timestamp;temperature;humidity
9201;DHT22;4635;48.686;9.008;2023-07-13T00:00:25;19.30;1.00
9201;DHT22;4635;48.686;9.008;2023-07-13T00:02:52;19.20;1.00
9201;DHT22;4635;48.686;9.008;2023-07-13T00:05:30;19.20;1.00
9201;DHT22;4635;48.686;9.008;2023-07-13T00:08:00;19.10;1.00
9201;DHT22;4635;48.686;9.008;2023-07-13T00:10:29;19.10;1.00
9201;DHT22;4635;48.686;9.008;2023-07-13T00:12:57;19.00;1.00
9201;DHT22;4635;48.686;9.008;2023-07-13T00:15:35;19.00;1.00
9201;DHT22;4635;48.686;9.008;2023-07-13T00:18:06;19.00;1.00
9201;DHT22;4635;48.686;9.008;2023-07-13T00:20:34;18.80;1.00
9201;DHT22;4635;48.686;9.008;2023-07-13T00:23:06;18.80;1.00
9201;DHT22;4635;48.686;9.008;2023-07-13T00:25:51;18.70;1.00
9201;DHT22;4635;48.686;9.008;2023-07-13T00:28:22;18.80;1.00
9201;DHT22;4635;48.686;9.008;2023-07-13T00:30:50;18.60;1.00
9201;DHT22;4635;48.686;9.008;2023-07-13T00:33:18;18.60;1.00
9201;DHT22;4635;48.686;9.008;2023-07-13T00:35:49;18.50;1.00
9201;DHT22;4635;48.686;9.008;2023-07-13T00:38:19;18.50;1.00
9201;DHT22;4635;48.686;9.008;2023-07-13T00:40:48;18.40;1.00
9201;DHT22;4635;48.686;9.008;2023-07-13T00:43:25;18.40;1.00
9201;DHT22;4635;48.686;9.008;2023-07-13T00:46:13;18.40;1.00
9201;DHT22;4635;48.686;9.008;2023-07-13T00:48:41;18.40;1.00
9201;DHT22;4635;48.686;9.008;2023-07-13T00:51:11;18.40;1.00
9201;DHT22;4635;48.686;9.008;2023-07-13T00:53:43;18.40;1.00
9201;DHT22;4635;48.686;9.008;2023-07-13T00:56:13;18.40;1.00
9201;DHT22;4635;48.686;9.008;2023-07-13T00:58:41;18.30;1.00
9201;DHT22;4635;48.686;9.008;2023-07-13T01:01:22;18.30;1.00
9201;DHT22;4635;48.686;9.008;2023-07-13T01:04:03;18.30;1.00
9201;DHT22;4635;48.686;9.008;2023-07-13T01:06:37;18.40;1.00
9201;DHT22;4635;48.686;9.008;2023-07-13T01:09:09;18.40;1.00
9201;DHT22;4635;48.686;9.008;2023-07-13T01:11:57;18.40;1.00
9201;DHT22;4635;48.686;9.008;2023-07-13T01:14:27;18.50;1.00
9201;DHT22;4635;48.686;9.008;2023-07-13T01:16:55;18.40;1.00
9201;DHT22;4635;48.686;9.008;2023-07-13T01:19:28;18.50;1.00
9201;DHT22;4635;48.686;9.008;2023-07-13T01:22:03;18.50;1.00
9201;DHT22;4635;48.686;9.008;2023-07-13T01:24:46;18.50;1.00
9201;DHT22;4635;48.686;9.008;2023-07-13T01:27:44;18.50;1.00
9201;DHT22;4635;48.686;9.008;2023-07-13T01:30:12;18.40;1.00
9201;DHT22;4635;48.686;9.008;2023-07-13T01:32:42;18.40;1.00
9201;DHT22;4635;48.686;9.008;2023-07-13T01:35:17;18.30;1.00
9201;DHT22;4635;48.686;9.008;2023-07-13T01:37:48;18.30;1.00
9201;DHT22;4635;48.686;9.008;2023-07-13T01:40:16;18.20;1.00
9201;DHT22;4635;48.686;9.008;2023-07-13T01:42:48;18.20;1.00
9201;DHT22;4635;48.686;9.008;2023-07-13T01:45:26;18.20;1.00
9201;DHT22;4635;48.686;9.008;2023-07-13T01:47:59;18.10;1.00
9201;DHT22;4635;48.686;9.008;2023-07-13T01:50:31;18.10;1.00
9201;DHT22;4635;48.686;9.008;2023-07-13T01:53:14;18.00;1.00
9201;DHT22;4635;48.686;9.008;2023-07-13T01:55:47;17.90;1.00
9201;DHT22;4635;48.686;9.008;2023-07-13T01:58:17;17.90;1.00
9201;DHT22;4635;48.686;9.008;2023-07-13T02:00:49;18.00;1.00
9201;DHT22;4635;48.686;9.008;2023-07-13T02:03:25;17.90;1.00
9201;DHT22;4635;48.686;9.008;2023-07-13T02:05:52;17.90;1.00
9201;DHT22;4635;48.686;9.008;2023-07-13T02:08:22;17.90;1.00
9201;DHT22;4635;48.686;9.008;2023-07-13T02:11:03;17.90;1.00
9201;DHT22;4635;48.686;9.008;2023-07-13T02:13:31;17.90;1.00
9201;DHT22;4635;48.686;9.008;2023-07-13T02:15:58;17.80;1.00
9201;DHT22;4635;48.686;9.008;2023-07-13T02:18:26;17.80;1.00
9201;DHT22;4635;48.686;9.008;2023-07-13T02:20:54;17.60;1.00
9201;DHT22;4635;48.686;9.008;2023-07-13T02:23:36;17.70;1.00
9201;DHT22;4635;48.686;9.008;2023-07-13T02:26:05;17.80;1.00
9201;DHT22;4635;48.686;9.008;2023-07-13T02:28:35;17.60;1.00
9201;DHT22;4635;48.686;9.008;2023-07-13T02:31:06;17.50;1.00
9201;DHT22;4635;48.686;9.008;2023-07-13T02:33:36;17.40;1.00
9201;DHT22;4635;48.686;9.008;2023-07-13T02:36:11;17.40;1.00
9201;DHT22;4635;48.686;9.008;2023-07-13T02:38:53;17.30;1.00
9201;DHT22;4635;48.686;9.008;2023-07-13T02:41:28;17.20;1.00
9201;DHT22;4635;48.686;9.008;2023-07-13T02:44:02;17.20;1.00
9201;DHT22;4635;48.686;9.008;2023-07-13T02:46:34;17.20;1.00
9201;DHT22;4635;48.686;9.008;2023-07-13T02:49:04;17.10;1.00
9201;DHT22;4635;48.686;9.008;2023-07-13T02:51:39;17.00;1.00
9201;DHT22;4635;48.686;9.008;2023-07-13T02:54:12;17.00;1.00
9201;DHT22;4635;48.686;9.008;2023-07-13T02:56:40;17.00;1.00
9201;DHT22;4635;48.686;9.008;2023-07-13T02:59:19;17.00;1.00
9201;DHT22;4635;48.686;9.008;2023-07-13T03:01:46;16.90;1.00
9201;DHT22;4635;48.686;9.008;2023-07-13T03:04:14;16.70;1.00
9201;DHT22;4635;48.686;9.008;2023-07-13T03:06:45;16.50;1.00
9201;DHT22;4635;48.686;9.008;2023-07-13T03:09:35;16.40;11.80
9201;DHT22;4635;48.686;9.008;2023-07-13T03:12:03;16.40;43.50
9201;DHT22;4635;48.686;9.008;2023-07-13T03:14:32;16.40;95.10
9201;DHT22;4635;48.686;9.008;2023-07-13T03:17:09;16.40;76.50
9201;DHT22;4635;48.686;9.008;2023-07-13T03:19:55;16.40;84.70
9201;DHT22;4635;48.686;9.008;2023-07-13T03:30:14;16.50;63.10
9201;DHT22;4635;48.686;9.008;2023-07-13T03:32:44;16.60;98.60
9201;DHT22;4635;48.686;9.008;2023-07-13T03:35:16;16.70;92.40
9201;DHT22;4635;48.686;9.008;2023-07-13T03:37:50;16.70;94.80
9201;DHT22;4635;48.686;9.008;2023-07-13T03:40:19;16.70;99.90
9201;DHT22;4635;48.686;9.008;2023-07-13T03:43:06;16.80;99.90
9201;DHT22;4635;48.686;9.008;2023-07-13T03:51:16;16.90;99.90
9201;DHT22;4635;48.686;9.008;2023-07-13T03:54:01;17.00;87.30
9201;DHT22;4635;48.686;9.008;2023-07-13T03:57:52;17.10;86.10
9201;DHT22;4635;48.686;9.008;2023-07-13T04:00:10;17.10;54.00
9201;DHT22;4635;48.686;9.008;2023-07-13T04:02:55;17.10;1.00
9201;DHT22;4635;48.686;9.008;2023-07-13T04:05:42;17.20;1.00
9201;DHT22;4635;48.686;9.008;2023-07-13T04:08:37;17.20;1.00
9201;DHT22;4635;48.686;9.008;2023-07-13T04:11:31;17.30;1.00
9201;DHT22;4635;48.686;9.008;2023-07-13T04:14:22;17.40;1.00
9201;DHT22;4635;48.686;9.008;2023-07-13T04:16:58;17.40;1.00
9201;DHT22;4635;48.686;9.008;2023-07-13T04:22:12;17.50;1.00
9201;DHT22;4635;48.686;9.008;2023-07-13T04:33:55;17.00;95.40
9201;DHT22;4635;48.686;9.008;2023-07-13T04:40:33;16.90;96.60
9201;DHT22;4635;48.686;9.008;2023-07-13T04:43:19;16.80;57.20
9201;DHT22;4635;48.686;9.008;2023-07-13T04:46:04;16.90;88.80
9201;DHT22;4635;48.686;9.008;2023-07-13T04:51:30;16.80;93.90
9201;DHT22;4635;48.686;9.008;2023-07-13T04:54:12;16.90;85.70
9201;DHT22;4635;48.686;9.008;2023-07-13T04:56:54;16.90;59.60
9201;DHT22;4635;48.686;9.008;2023-07-13T04:59:36;16.90;58.60
9201;DHT22;4635;48.686;9.008;2023-07-13T05:02:25;17.00;23.30
9201;DHT22;4635;48.686;9.008;2023-07-13T05:08:26;17.10;2.10
9201;DHT22;4635;48.686;9.008;2023-07-13T05:11:01;17.20;1.00
9201;DHT22;4635;48.686;9.008;2023-07-13T05:13:31;17.20;1.00
9201;DHT22;4635;48.686;9.008;2023-07-13T05:16:01;17.40;1.00
9201;DHT22;4635;48.686;9.008;2023-07-13T05:18:42;17.60;1.00
9201;DHT22;4635;48.686;9.008;2023-07-13T05:21:19;17.80;1.00
9201;DHT22;4635;48.686;9.008;2023-07-13T05:24:22;17.90;1.00
9201;DHT22;4635;48.686;9.008;2023-07-13T05:26:57;18.10;1.00
9201;DHT22;4635;48.686;9.008;2023-07-13T05:29:42;18.00;1.00
9201;DHT22;4635;48.686;9.008;2023-07-13T05:35:42;17.90;1.00
9201;DHT22;4635;48.686;9.008;2023-07-13T05:41:08;17.90;1.00
9201;DHT22;4635;48.686;9.008;2023-07-13T05:55:27;18.30;1.00
9201;DHT22;4635;48.686;9.008;2023-07-13T05:57:59;18.30;1.00
9201;DHT22;4635;48.686;9.008;2023-07-13T06:03:59;18.40;1.00
9201;DHT22;4635;48.686;9.008;2023-07-13T06:06:35;18.40;1.00
9201;DHT22;4635;48.686;9.008;2023-07-13T06:09:20;18.50;1.00
9201;DHT22;4635;48.686;9.008;2023-07-13T06:20:33;18.70;1.00
9201;DHT22;4635;48.686;9.008;2023-07-13T06:23:20;18.60;1.00
9201;DHT22;4635;48.686;9.008;2023-07-13T06:26:20;18.90;1.00
9201;DHT22;4635;48.686;9.008;2023-07-13T06:29:22;19.10;1.00
9201;DHT22;4635;48.686;9.008;2023-07-13T06:32:12;19.40;1.00
9201;DHT22;4635;48.686;9.008;2023-07-13T06:46:42;19.90;1.00
9201;DHT22;4635;48.686;9.008;2023-07-13T06:49:30;19.60;1.00
9201;DHT22;4635;48.686;9.008;2023-07-13T06:52:13;19.70;1.00
9201;DHT22;4635;48.686;9.008;2023-07-13T06:54:47;19.70;1.00
9201;DHT22;4635;48.686;9.008;2023-07-13T06:57:32;19.90;1.00
9201;DHT22;4635;48.686;9.008;2023-07-13T07:03:26;19.90;1.00
9201;DHT22;4635;48.686;9.008;2023-07-13T07:12:24;20.10;1.00
9201;DHT22;4635;48.686;9.008;2023-07-13T07:15:11;20.20;1.00
9201;DHT22;4635;48.686;9.008;2023-07-13T07:18:01;20.20;1.00
9201;DHT22;4635;48.686;9.008;2023-07-13T07:48:17;20.90;1.00
9201;DHT22;4635;48.686;9.008;2023-07-13T07:53:48;20.80;1.00
9201;DHT22;4635;48.686;9.008;2023-07-13T07:56:52;21.10;1.00
9201;DHT22;4635;48.686;9.008;2023-07-13T07:59:19;21.30;1.00
9201;DHT22;4635;48.686;9.008;2023-07-13T08:01:56;21.40;1.00
9201;DHT22;4635;48.686;9.008;2023-07-13T08:04:58;21.30;1.00
9201;DHT22;4635;48.686;9.008;2023-07-13T08:16:53;21.90;1.00
9201;DHT22;4635;48.686;9.008;2023-07-13T08:49:45;27.70;1.00
9201;DHT22;4635;48.686;9.008;2023-07-13T08:56:04;26.10;1.00
9201;DHT22;4635;48.686;9.008;2023-07-13T08:59:12;25.90;1.00
9201;DHT22;4635;48.686;9.008;2023-07-13T17:35:29;24.40;1.00
9201;DHT22;4635;48.686;9.008;2023-07-13T17:38:31;24.40;1.00
9201;DHT22;4635;48.686;9.008;2023-07-13T17:41:14;24.30;1.00
9201;DHT22;4635;48.686;9.008;2023-07-13T17:43:52;24.30;1.00
9201;DHT22;4635;48.686;9.008;2023-07-13T18:09:57;23.50;1.00
9201;DHT22;4635;48.686;9.008;2023-07-13T18:16:16;23.40;1.00
9201;DHT22;4635;48.686;9.008;2023-07-13T18:28:00;23.10;1.00
9201;DHT22;4635;48.686;9.008;2023-07-13T18:30:28;23.00;1.00
9201;DHT22;4635;48.686;9.008;2023-07-13T18:32:58;22.90;1.00
9201;DHT22;4635;48.686;9.008;2023-07-13T18:38:51;22.90;1.00
9201;DHT22;4635;48.686;9.008;2023-07-13T18:41:36;22.80;1.00
9201;DHT22;4635;48.686;9.008;2023-07-13T18:53:39;22.70;1.00
9201;DHT22;4635;48.686;9.008;2023-07-13T18:56:09;22.70;1.00
9201;DHT22;4635;48.686;9.008;2023-07-13T18:58:40;22.60;1.00
9201;DHT22;4635;48.686;9.008;2023-07-13T19:01:22;22.50;1.00
9201;DHT22;4635;48.686;9.008;2023-07-13T19:04:12;22.50;1.00
9201;DHT22;4635;48.686;9.008;2023-07-13T19:07:22;22.40;1.00
9201;DHT22;4635;48.686;9.008;2023-07-13T19:10:23;22.40;1.00
9201;DHT22;4635;48.686;9.008;2023-07-13T19:13:18;22.40;1.00
9201;DHT22;4635;48.686;9.008;2023-07-13T19:16:28;22.30;1.00
9201;DHT22;4635;48.686;9.008;2023-07-13T19:19:34;22.20;1.00
9201;DHT22;4635;48.686;9.008;2023-07-13T19:22:13;22.10;1.00
9201;DHT22;4635;48.686;9.008;2023-07-13T19:24:54;22.00;1.00
9201;DHT22;4635;48.686;9.008;2023-07-13T19:30:31;22.00;1.00
9201;DHT22;4635;48.686;9.008;2023-07-13T19:33:18;22.00;1.00
9201;DHT22;4635;48.686;9.008;2023-07-13T19:35:54;21.90;1.00
9201;DHT22;4635;48.686;9.008;2023-07-13T19:38:27;21.80;1.00
9201;DHT22;4635;48.686;9.008;2023-07-13T19:41:10;21.80;1.00
9201;DHT22;4635;48.686;9.008;2023-07-13T19:43:59;21.60;1.00
9201;DHT22;4635;48.686;9.008;2023-07-13T19:46:51;21.60;1.00
9201;DHT22;4635;48.686;9.008;2023-07-13T19:49:25;21.50;1.00
9201;DHT22;4635;48.686;9.008;2023-07-13T19:52:17;21.40;1.00
9201;DHT22;4635;48.686;9.008;2023-07-13T19:54:59;21.40;1.00
9201;DHT22;4635;48.686;9.008;2023-07-13T19:57:52;21.30;1.00
9201;DHT22;4635;48.686;9.008;2023-07-13T20:00:36;21.20;1.00
9201;DHT22;4635;48.686;9.008;2023-07-13T20:03:18;21.20;1.00
9201;DHT22;4635;48.686;9.008;2023-07-13T20:05:55;21.20;1.00
9201;DHT22;4635;48.686;9.008;2023-07-13T20:08:45;21.20;1.00
9201;DHT22;4635;48.686;9.008;2023-07-13T20:11:27;21.20;1.00
9201;DHT22;4635;48.686;9.008;2023-07-13T20:13:57;21.20;1.00
9201;DHT22;4635;48.686;9.008;2023-07-13T20:16:25;21.10;1.00
9201;DHT22;4635;48.686;9.008;2023-07-13T20:19:16;21.10;1.00
9201;DHT22;4635;48.686;9.008;2023-07-13T20:21:58;21.00;1.00
9201;DHT22;4635;48.686;9.008;2023-07-13T20:24:37;21.00;1.00
9201;DHT22;4635;48.686;9.008;2023-07-13T20:27:07;20.90;1.00
9201;DHT22;4635;48.686;9.008;2023-07-13T20:29:47;21.00;1.00
9201;DHT22;4635;48.686;9.008;2023-07-13T20:32:23;20.90;1.00
9201;DHT22;4635;48.686;9.008;2023-07-13T20:35:04;20.90;1.00
9201;DHT22;4635;48.686;9.008;2023-07-13T20:37:36;21.00;1.00
9201;DHT22;4635;48.686;9.008;2023-07-13T20:40:08;20.90;1.00
9201;DHT22;4635;48.686;9.008;2023-07-13T20:42:39;20.80;1.00
9201;DHT22;4635;48.686;9.008;2023-07-13T20:45:07;20.70;1.00
9201;DHT22;4635;48.686;9.008;2023-07-13T20:47:44;20.50;1.00
9201;DHT22;4635;48.686;9.008;2023-07-13T20:50:17;20.40;1.00
9201;DHT22;4635;48.686;9.008;2023-07-13T20:52:51;20.30;1.00
9201;DHT22;4635;48.686;9.008;2023-07-13T20:55:32;20.30;1.00
9201;DHT22;4635;48.686;9.008;2023-07-13T20:58:00;20.30;1.00
9201;DHT22;4635;48.686;9.008;2023-07-13T21:00:29;20.30;1.00
9201;DHT22;4635;48.686;9.008;2023-07-13T21:03:01;20.30;1.00
9201;DHT22;4635;48.686;9.008;2023-07-13T21:05:35;20.30;1.00
9201;DHT22;4635;48.686;9.008;2023-07-13T21:08:23;20.20;1.00
9201;DHT22;4635;48.686;9.008;2023-07-13T21:10:52;20.30;1.00
9201;DHT22;4635;48.686;9.008;2023-07-13T21:13:24;20.30;1.00
9201;DHT22;4635;48.686;9.008;2023-07-13T21:16:27;20.30;1.00
9201;DHT22;4635;48.686;9.008;2023-07-13T21:19:01;20.20;1.00
9201;DHT22;4635;48.686;9.008;2023-07-13T21:21:46;20.20;1.00
9201;DHT22;4635;48.686;9.008;2023-07-13T21:24:15;20.10;1.00
9201;DHT22;4635;48.686;9.008;2023-07-13T21:27:14;20.00;1.00
9201;DHT22;4635;48.686;9.008;2023-07-13T21:29:53;20.00;1.00
9201;DHT22;4635;48.686;9.008;2023-07-13T21:32:29;19.90;1.00
9201;DHT22;4635;48.686;9.008;2023-07-13T21:34:58;19.80;1.00
9201;DHT22;4635;48.686;9.008;2023-07-13T21:37:44;19.80;1.00
9201;DHT22;4635;48.686;9.008;2023-07-13T21:42:39;19.40;1.00
9201;DHT22;4635;48.686;9.008;2023-07-13T21:45:15;19.40;1.00
9201;DHT22;4635;48.686;9.008;2023-07-13T21:47:45;19.40;1.00
9201;DHT22;4635;48.686;9.008;2023-07-13T21:50:24;19.30;1.00
9201;DHT22;4635;48.686;9.008;2023-07-13T21:52:59;19.30;1.00
9201;DHT22;4635;48.686;9.008;2023-07-13T21:55:26;19.40;1.00
9201;DHT22;4635;48.686;9.008;2023-07-13T21:57:55;19.40;1.00
9201;DHT22;4635;48.686;9.008;2023-07-13T22:00:29;19.50;1.00
9201;DHT22;4635;48.686;9.008;2023-07-13T22:02:59;19.50;1.00
9201;DHT22;4635;48.686;9.008;2023-07-13T22:05:26;19.30;1.00
9201;DHT22;4635;48.686;9.008;2023-07-13T22:08:35;19.10;1.00
9201;DHT22;4635;48.686;9.008;2023-07-13T22:11:10;18.80;1.00
9201;DHT22;4635;48.686;9.008;2023-07-13T22:13:38;18.70;1.00
9201;DHT22;4635;48.686;9.008;2023-07-13T22:16:19;18.50;1.00
9201;DHT22;4635;48.686;9.008;2023-07-13T22:18:49;18.60;1.00
9201;DHT22;4635;48.686;9.008;2023-07-13T22:21:19;18.40;1.00
9201;DHT22;4635;48.686;9.008;2023-07-13T22:23:52;18.30;1.00
9201;DHT22;4635;48.686;9.008;2023-07-13T22:26:38;18.10;1.00
9201;DHT22;4635;48.686;9.008;2023-07-13T22:29:14;18.00;1.00
9201;DHT22;4635;48.686;9.008;2023-07-13T22:31:43;17.90;1.00
9201;DHT22;4635;48.686;9.008;2023-07-13T22:34:14;17.80;1.00
9201;DHT22;4635;48.686;9.008;2023-07-13T22:37:00;17.80;1.00
9201;DHT22;4635;48.686;9.008;2023-07-13T22:39:36;17.80;1.00
9201;DHT22;4635;48.686;9.008;2023-07-13T22:42:10;17.70;1.00
9201;DHT22;4635;48.686;9.008;2023-07-13T22:44:43;17.80;1.00
9201;DHT22;4635;48.686;9.008;2023-07-13T22:47:14;17.80;1.00
9201;DHT22;4635;48.686;9.008;2023-07-13T22:49:45;17.60;1.00
9201;DHT22;4635;48.686;9.008;2023-07-13T22:52:15;17.60;1.00
9201;DHT22;4635;48.686;9.008;2023-07-13T22:54:48;17.60;1.00
9201;DHT22;4635;48.686;9.008;2023-07-13T22:57:18;17.50;1.00
9201;DHT22;4635;48.686;9.008;2023-07-13T22:59:49;17.40;1.00
9201;DHT22;4635;48.686;9.008;2023-07-13T23:02:17;17.40;1.00
9201;DHT22;4635;48.686;9.008;2023-07-13T23:04:45;17.30;1.00
9201;DHT22;4635;48.686;9.008;2023-07-13T23:07:16;17.30;1.00
9201;DHT22;4635;48.686;9.008;2023-07-13T23:18:29;17.00;1.00
9201;DHT22;4635;48.686;9.008;2023-07-13T23:21:01;17.10;1.00
9201;DHT22;4635;48.686;9.008;2023-07-13T23:23:29;17.10;1.00
9201;DHT22;4635;48.686;9.008;2023-07-13T23:25:58;17.10;1.00
9201;DHT22;4635;48.686;9.008;2023-07-13T23:28:31;17.20;1.00
9201;DHT22;4635;48.686;9.008;2023-07-13T23:31:10;17.10;1.00
9201;DHT22;4635;48.686;9.008;2023-07-13T23:33:42;17.10;1.00
9201;DHT22;4635;48.686;9.008;2023-07-13T23:36:28;17.00;1.00
9201;DHT22;4635;48.686;9.008;2023-07-13T23:39:11;16.80;1.00
9201;DHT22;4635;48.686;9.008;2023-07-13T23:41:43;16.80;1.00
9201;DHT22;4635;48.686;9.008;2023-07-13T23:44:12;16.80;1.00
9201;DHT22;4635;48.686;9.008;2023-07-13T23:46:43;16.80;1.00
9201;DHT22;4635;48.686;9.008;2023-07-13T23:49:21;16.90;1.00
9201;DHT22;4635;48.686;9.008;2023-07-13T23:52:00;16.90;1.00
9201;DHT22;4635;48.686;9.008;2023-07-13T23:54:33;16.90;1.00
9201;DHT22;4635;48.686;9.008;2023-07-13T23:57:02;16.80;1.00
9201;DHT22;4635;48.686;9.008;2023-07-13T23:59:30;16.80;1.00
